sensor_id;sensor_type;location;lat;lon;timestamp;pressure;altitude;pressure_sealevel;temperature;humidity
9289;BME280;4683;50.864;12.086;2024-02-23T00:02:13;96423.28;;;12.59;100.00
9289;BME280;4683;50.864;12.086;2024-02-23T00:04:42;96398.94;;;12.57;100.00
9289;BME280;4683;50.864;12.086;2024-02-23T00:07:13;96393.66;;;12.67;100.00
9289;BME280;4683;50.864;12.086;2024-02-23T00:09:44;96404.25;;;12.67;100.00
9289;BME280;4683;50.864;12.086;2024-02-23T00:12:14;96392.06;;;12.56;100.00
9289;BME280;4683;50.864;12.086;2024-02-23T00:14:44;96395.22;;;12.58;100.00
9289;BME280;4683;50.864;12.086;2024-02-23T00:17:15;96415.28;;;12.49;100.00
9289;BME280;4683;50.864;12.086;2024-02-23T00:19:49;96412.38;;;12.40;100.00
9289;BME280;4683;50.864;12.086;2024-02-23T00:22:21;96398.88;;;12.47;100.00
9289;BME280;4683;50.864;12.086;2024-02-23T00:24:52;96401.03;;;12.50;100.00
9289;BME280;4683;50.864;12.086;2024-02-23T00:27:23;96425.84;;;12.49;100.00
9289;BME280;4683;50.864;12.086;2024-02-23T00:29:53;96435.13;;;12.46;100.00
9289;BME280;4683;50.864;12.086;2024-02-23T00:32:22;96450.41;;;12.39;100.00
9289;BME280;4683;50.864;12.086;2024-02-23T00:34:51;96469.91;;;12.28;100.00
9289;BME280;4683;50.864;12.086;2024-02-23T00:37:21;96487.41;;;12.39;100.00
9289;BME280;4683;50.864;12.086;2024-02-23T00:39:50;96471.75;;;12.27;100.00
9289;BME280;4683;50.864;12.086;2024-02-23T00:42:19;96449.59;;;12.38;100.00
9289;BME280;4683;50.864;12.086;2024-02-23T00:44:52;96469.16;;;12.32;100.00
9289;BME280;4683;50.864;12.086;2024-02-23T00:47:20;96477.03;;;12.22;100.00
9289;BME280;4683;50.864;12.086;2024-02-23T00:49:50;96463.03;;;12.27;100.00
9289;BME280;4683;50.864;12.086;2024-02-23T00:52:18;96448.25;;;12.31;100.00
9289;BME280;4683;50.864;12.086;2024-02-23T00:54:48;96469.66;;;12.29;100.00
9289;BME280;4683;50.864;12.086;2024-02-23T00:57:17;96483.38;;;12.26;100.00
9289;BME280;4683;50.864;12.086;2024-02-23T00:59:55;96496.03;;;12.19;100.00
9289;BME280;4683;50.864;12.086;2024-02-23T01:02:23;96516.09;;;12.20;100.00
9289;BME280;4683;50.864;12.086;2024-02-23T01:04:52;96543.03;;;12.17;100.00
9289;BME280;4683;50.864;12.086;2024-02-23T01:07:24;96556.94;;;12.02;100.00
9289;BME280;4683;50.864;12.086;2024-02-23T01:09:53;96561.72;;;12.05;100.00
9289;BME280;4683;50.864;12.086;2024-02-23T01:12:21;96563.56;;;12.05;100.00
9289;BME280;4683;50.864;12.086;2024-02-23T01:14:51;96560.03;;;11.94;100.00
9289;BME280;4683;50.864;12.086;2024-02-23T01:17:22;96561.16;;;12.03;100.00
9289;BME280;4683;50.864;12.086;2024-02-23T01:19:52;96560.03;;;11.94;100.00
9289;BME280;4683;50.864;12.086;2024-02-23T01:22:21;96577.19;;;11.91;100.00
9289;BME280;4683;50.864;12.086;2024-02-23T01:24:50;96588.13;;;11.78;100.00
9289;BME280;4683;50.864;12.086;2024-02-23T01:27:19;96582.84;;;11.78;100.00
9289;BME280;4683;50.864;12.086;2024-02-23T01:29:48;96595.44;;;11.71;100.00
9289;BME280;4683;50.864;12.086;2024-02-23T01:32:17;96612.69;;;11.79;100.00
9289;BME280;4683;50.864;12.086;2024-02-23T01:34:46;96620.22;;;11.65;100.00
9289;BME280;4683;50.864;12.086;2024-02-23T01:37:16;96628.94;;;11.65;100.00
9289;BME280;4683;50.864;12.086;2024-02-23T01:39:45;96638.16;;;11.63;100.00
9289;BME280;4683;50.864;12.086;2024-02-23T01:42:13;96635.94;;;11.55;100.00
9289;BME280;4683;50.864;12.086;2024-02-23T01:44:42;96647.41;;;11.43;100.00
9289;BME280;4683;50.864;12.086;2024-02-23T01:47:11;96648.38;;;11.15;100.00
9289;BME280;4683;50.864;12.086;2024-02-23T01:49:39;96667.66;;;11.16;100.00
9289;BME280;4683;50.864;12.086;2024-02-23T01:52:10;96666.06;;;11.15;100.00
9289;BME280;4683;50.864;12.086;2024-02-23T01:54:38;96674.97;;;11.09;100.00
9289;BME280;4683;50.864;12.086;2024-02-23T01:57:09;96678.47;;;10.98;100.00
9289;BME280;4683;50.864;12.086;2024-02-23T01:59:38;96686.78;;;10.89;100.00
9289;BME280;4683;50.864;12.086;2024-02-23T02:02:08;96677.94;;;10.79;100.00
9289;BME280;4683;50.864;12.086;2024-02-23T02:04:36;96695.38;;;10.63;100.00
9289;BME280;4683;50.864;12.086;2024-02-23T02:07:05;96694.56;;;10.62;100.00
9289;BME280;4683;50.864;12.086;2024-02-23T02:09:36;96725.63;;;10.60;100.00
9289;BME280;4683;50.864;12.086;2024-02-23T02:12:04;96723.16;;;10.54;100.00
9289;BME280;4683;50.864;12.086;2024-02-23T02:14:33;96729.28;;;10.43;100.00
9289;BME280;4683;50.864;12.086;2024-02-23T02:17:02;96737.28;;;10.48;100.00
9289;BME280;4683;50.864;12.086;2024-02-23T02:19:31;96737.56;;;10.34;100.00
9289;BME280;4683;50.864;12.086;2024-02-23T02:22:01;96737.84;;;10.21;100.00
9289;BME280;4683;50.864;12.086;2024-02-23T02:24:29;96735.09;;;10.16;100.00
9289;BME280;4683;50.864;12.086;2024-02-23T02:26:59;96737.75;;;10.16;100.00
9289;BME280;4683;50.864;12.086;2024-02-23T02:29:29;96737.47;;;10.01;100.00
9289;BME280;4683;50.864;12.086;2024-02-23T02:31:58;96759.94;;;9.91;100.00
9289;BME280;4683;50.864;12.086;2024-02-23T02:34:26;96769.66;;;9.91;100.00
9289;BME280;4683;50.864;12.086;2024-02-23T02:36:56;96771.88;;;9.82;100.00
9289;BME280;4683;50.864;12.086;2024-02-23T02:39:25;96778.38;;;9.80;100.00
9289;BME280;4683;50.864;12.086;2024-02-23T02:41:54;96781.34;;;9.83;100.00
9289;BME280;4683;50.864;12.086;2024-02-23T02:44:25;96775.88;;;9.73;100.00
9289;BME280;4683;50.864;12.086;2024-02-23T02:46:57;96771.19;;;9.75;100.00
9289;BME280;4683;50.864;12.086;2024-02-23T02:49:27;96784.81;;;9.72;100.00
9289;BME280;4683;50.864;12.086;2024-02-23T02:51:55;96787.66;;;9.71;100.00
9289;BME280;4683;50.864;12.086;2024-02-23T02:54:27;96794.56;;;9.60;100.00
9289;BME280;4683;50.864;12.086;2024-02-23T02:56:58;96795.00;;;9.57;100.00
9289;BME280;4683;50.864;12.086;2024-02-23T02:59:28;96792.47;;;9.62;100.00
9289;BME280;4683;50.864;12.086;2024-02-23T03:01:58;96794.34;;;9.50;100.00
9289;BME280;4683;50.864;12.086;2024-02-23T03:04:29;96797.53;;;9.52;100.00
9289;BME280;4683;50.864;12.086;2024-02-23T03:06:57;96809.91;;;9.51;100.00
9289;BME280;4683;50.864;12.086;2024-02-23T03:09:26;96814.69;;;9.43;100.00
9289;BME280;4683;50.864;12.086;2024-02-23T03:11:55;96833.22;;;9.48;100.00
9289;BME280;4683;50.864;12.086;2024-02-23T03:14:27;96843.41;;;9.44;100.00
9289;BME280;4683;50.864;12.086;2024-02-23T03:16:57;96848.47;;;9.46;100.00
9289;BME280;4683;50.864;12.086;2024-02-23T03:19:26;96853.00;;;9.38;100.00
9289;BME280;4683;50.864;12.086;2024-02-23T03:21:54;96846.41;;;9.36;100.00
9289;BME280;4683;50.864;12.086;2024-02-23T03:24:23;96851.06;;;9.22;100.00
9289;BME280;4683;50.864;12.086;2024-02-23T03:26:52;96847.63;;;9.33;100.00
9289;BME280;4683;50.864;12.086;2024-02-23T03:29:23;96863.88;;;9.30;100.00
9289;BME280;4683;50.864;12.086;2024-02-23T03:31:54;96864.19;;;9.10;100.00
9289;BME280;4683;50.864;12.086;2024-02-23T03:34:23;96868.66;;;9.10;100.00
9289;BME280;4683;50.864;12.086;2024-02-23T03:36:52;96882.22;;;8.95;100.00
9289;BME280;4683;50.864;12.086;2024-02-23T03:39:21;96900.78;;;9.12;100.00
9289;BME280;4683;50.864;12.086;2024-02-23T03:41:50;96905.69;;;9.08;100.00
9289;BME280;4683;50.864;12.086;2024-02-23T03:44:18;96901.56;;;9.01;100.00
9289;BME280;4683;50.864;12.086;2024-02-23T03:46:47;96911.97;;;9.07;100.00
9289;BME280;4683;50.864;12.086;2024-02-23T03:49:16;96919.28;;;9.05;100.00
9289;BME280;4683;50.864;12.086;2024-02-23T03:51:45;96914.09;;;8.99;100.00
9289;BME280;4683;50.864;12.086;2024-02-23T03:54:13;96918.66;;;8.92;100.00
9289;BME280;4683;50.864;12.086;2024-02-23T03:56:42;96916.97;;;8.97;100.00
9289;BME280;4683;50.864;12.086;2024-02-23T03:59:10;96918.19;;;8.95;100.00
9289;BME280;4683;50.864;12.086;2024-02-23T04:01:39;96927.22;;;8.87;100.00
9289;BME280;4683;50.864;12.086;2024-02-23T04:04:09;96936.22;;;8.79;100.00
9289;BME280;4683;50.864;12.086;2024-02-23T04:06:40;96932.78;;;8.79;100.00
9289;BME280;4683;50.864;12.086;2024-02-23T04:09:09;96937.09;;;8.73;100.00
9289;BME280;4683;50.864;12.086;2024-02-23T04:11:37;96938.72;;;8.74;100.00
9289;BME280;4683;50.864;12.086;2024-02-23T04:14:07;96938.59;;;8.81;100.00
9289;BME280;4683;50.864;12.086;2024-02-23T04:16:35;96930.81;;;8.74;100.00
9289;BME280;4683;50.864;12.086;2024-02-23T04:19:07;96936.00;;;8.62;100.00
9289;BME280;4683;50.864;12.086;2024-02-23T04:21:40;96936.50;;;8.71;100.00
9289;BME280;4683;50.864;12.086;2024-02-23T04:24:12;96933.53;;;8.68;100.00
9289;BME280;4683;50.864;12.086;2024-02-23T04:26:40;96933.47;;;8.56;100.00
9289;BME280;4683;50.864;12.086;2024-02-23T04:29:11;96935.72;;;8.52;100.00
9289;BME280;4683;50.864;12.086;2024-02-23T04:31:39;96955.38;;;8.50;100.00
9289;BME280;4683;50.864;12.086;2024-02-23T04:34:08;96954.56;;;8.49;100.00
9289;BME280;4683;50.864;12.086;2024-02-23T04:36:38;96959.59;;;8.51;100.00
9289;BME280;4683;50.864;12.086;2024-02-23T04:39:08;96962.16;;;8.39;100.00
9289;BME280;4683;50.864;12.086;2024-02-23T04:41:37;96969.00;;;8.40;100.00
9289;BME280;4683;50.864;12.086;2024-02-23T04:44:05;96983.31;;;8.44;100.00
9289;BME280;4683;50.864;12.086;2024-02-23T04:46:34;96992.47;;;8.35;100.00
9289;BME280;4683;50.864;12.086;2024-02-23T04:49:02;96979.88;;;8.44;100.00
9289;BME280;4683;50.864;12.086;2024-02-23T04:51:31;96994.03;;;8.43;100.00
9289;BME280;4683;50.864;12.086;2024-02-23T04:54:02;96985.22;;;8.37;100.00
9289;BME280;4683;50.864;12.086;2024-02-23T04:56:31;96986.03;;;8.37;100.00
9289;BME280;4683;50.864;12.086;2024-02-23T04:59:00;96988.25;;;8.34;100.00
9289;BME280;4683;50.864;12.086;2024-02-23T05:01:28;96984.41;;;8.36;100.00
9289;BME280;4683;50.864;12.086;2024-02-23T05:03:56;96985.00;;;8.38;100.00
9289;BME280;4683;50.864;12.086;2024-02-23T05:06:25;96992.13;;;8.31;100.00
9289;BME280;4683;50.864;12.086;2024-02-23T05:08:53;97000.75;;;8.38;100.00
9289;BME280;4683;50.864;12.086;2024-02-23T05:11:23;97012.31;;;8.31;100.00
9289;BME280;4683;50.864;12.086;2024-02-23T05:13:51;97009.25;;;8.34;100.00
9289;BME280;4683;50.864;12.086;2024-02-23T05:16:19;96993.78;;;8.26;100.00
9289;BME280;4683;50.864;12.086;2024-02-23T05:18:48;97005.81;;;8.33;100.00
9289;BME280;4683;50.864;12.086;2024-02-23T05:21:17;97019.69;;;8.22;100.00
9289;BME280;4683;50.864;12.086;2024-02-23T05:23:46;97041.03;;;8.26;100.00
9289;BME280;4683;50.864;12.086;2024-02-23T05:26:14;97053.09;;;8.33;100.00
9289;BME280;4683;50.864;12.086;2024-02-23T05:28:44;97042.28;;;8.23;100.00
9289;BME280;4683;50.864;12.086;2024-02-23T05:31:12;97048.72;;;8.27;100.00
9289;BME280;4683;50.864;12.086;2024-02-23T05:33:41;97063.88;;;8.25;100.00
9289;BME280;4683;50.864;12.086;2024-02-23T05:36:09;97060.06;;;8.21;100.00
9289;BME280;4683;50.864;12.086;2024-02-23T05:38:37;97063.16;;;8.18;100.00
9289;BME280;4683;50.864;12.086;2024-02-23T05:41:05;97071.44;;;8.15;100.00
9289;BME280;4683;50.864;12.086;2024-02-23T05:43:34;97056.66;;;8.21;100.00
9289;BME280;4683;50.864;12.086;2024-02-23T05:46:06;97062.53;;;8.16;100.00
9289;BME280;4683;50.864;12.086;2024-02-23T05:48:34;97094.91;;;8.10;100.00
9289;BME280;4683;50.864;12.086;2024-02-23T05:51:02;97103.97;;;8.14;100.00
9289;BME280;4683;50.864;12.086;2024-02-23T05:53:31;97085.78;;;8.12;100.00
9289;BME280;4683;50.864;12.086;2024-02-23T05:56:03;97094.06;;;8.16;100.00
9289;BME280;4683;50.864;12.086;2024-02-23T05:58:31;97104.41;;;8.11;100.00
9289;BME280;4683;50.864;12.086;2024-02-23T06:01:00;97107.25;;;8.09;100.00
9289;BME280;4683;50.864;12.086;2024-02-23T06:03:31;97105.03;;;8.06;100.00
9289;BME280;4683;50.864;12.086;2024-02-23T06:05:59;97089.66;;;8.10;100.00
9289;BME280;4683;50.864;12.086;2024-02-23T06:08:27;97097.28;;;8.18;100.00
9289;BME280;4683;50.864;12.086;2024-02-23T06:10:55;97100.66;;;8.00;100.00
9289;BME280;4683;50.864;12.086;2024-02-23T06:13:26;97103.81;;;8.09;100.00
9289;BME280;4683;50.864;12.086;2024-02-23T06:15:55;97118.88;;;7.88;100.00
9289;BME280;4683;50.864;12.086;2024-02-23T06:18:24;97112.97;;;8.00;100.00
9289;BME280;4683;50.864;12.086;2024-02-23T06:21:03;97111.19;;;7.94;100.00
9289;BME280;4683;50.864;12.086;2024-02-23T06:23:39;97118.66;;;7.97;100.00
9289;BME280;4683;50.864;12.086;2024-02-23T06:26:07;97129.38;;;7.95;100.00
9289;BME280;4683;50.864;12.086;2024-02-23T06:28:35;97138.63;;;7.98;100.00
9289;BME280;4683;50.864;12.086;2024-02-23T06:31:06;97130.16;;;7.96;100.00
9289;BME280;4683;50.864;12.086;2024-02-23T06:33:35;97137.88;;;7.91;100.00
9289;BME280;4683;50.864;12.086;2024-02-23T06:36:06;97141.88;;;7.93;100.00
9289;BME280;4683;50.864;12.086;2024-02-23T06:38:35;97154.38;;;7.98;100.00
9289;BME280;4683;50.864;12.086;2024-02-23T06:41:04;97164.31;;;7.89;100.00
9289;BME280;4683;50.864;12.086;2024-02-23T06:43:34;97154.78;;;7.95;100.00
9289;BME280;4683;50.864;12.086;2024-02-23T06:46:06;97154.38;;;7.98;100.00
9289;BME280;4683;50.864;12.086;2024-02-23T06:48:35;97165.03;;;8.03;100.00
9289;BME280;4683;50.864;12.086;2024-02-23T06:51:07;97164.47;;;8.01;100.00
9289;BME280;4683;50.864;12.086;2024-02-23T06:53:36;97167.91;;;7.95;100.00
9289;BME280;4683;50.864;12.086;2024-02-23T06:56:05;97188.91;;;7.95;100.00
9289;BME280;4683;50.864;12.086;2024-02-23T06:58:33;97206.88;;;7.98;100.00
9289;BME280;4683;50.864;12.086;2024-02-23T07:01:02;97212.59;;;7.88;100.00
9289;BME280;4683;50.864;12.086;2024-02-23T07:03:32;97210.94;;;7.94;100.00
9289;BME280;4683;50.864;12.086;2024-02-23T07:06:01;97204.88;;;8.00;100.00
9289;BME280;4683;50.864;12.086;2024-02-23T07:08:32;97206.28;;;7.96;100.00
9289;BME280;4683;50.864;12.086;2024-02-23T07:11:01;97214.97;;;7.96;100.00
9289;BME280;4683;50.864;12.086;2024-02-23T07:13:31;97227.13;;;7.91;100.00
9289;BME280;4683;50.864;12.086;2024-02-23T07:16:02;97238.84;;;7.88;100.00
9289;BME280;4683;50.864;12.086;2024-02-23T07:18:31;97230.75;;;7.89;100.00
9289;BME280;4683;50.864;12.086;2024-02-23T07:21:00;97230.34;;;7.93;100.00
9289;BME280;4683;50.864;12.086;2024-02-23T07:23:32;97241.06;;;7.91;100.00
9289;BME280;4683;50.864;12.086;2024-02-23T07:26:09;97255.38;;;7.95;100.00
9289;BME280;4683;50.864;12.086;2024-02-23T07:28:39;97261.88;;;7.86;100.00
9289;BME280;4683;50.864;12.086;2024-02-23T07:31:07;97268.69;;;7.94;100.00
9289;BME280;4683;50.864;12.086;2024-02-23T07:33:38;97264.00;;;8.02;100.00
9289;BME280;4683;50.864;12.086;2024-02-23T07:36:15;97266.06;;;7.94;100.00
9289;BME280;4683;50.864;12.086;2024-02-23T07:38:45;97266.72;;;7.82;100.00
9289;BME280;4683;50.864;12.086;2024-02-23T07:41:14;97261.03;;;7.85;100.00
9289;BME280;4683;50.864;12.086;2024-02-23T07:43:44;97254.53;;;7.95;100.00
9289;BME280;4683;50.864;12.086;2024-02-23T07:46:13;97258.19;;;8.00;100.00
9289;BME280;4683;50.864;12.086;2024-02-23T07:48:43;97265.66;;;7.97;100.00
9289;BME280;4683;50.864;12.086;2024-02-23T07:51:11;97270.28;;;7.95;100.00
9289;BME280;4683;50.864;12.086;2024-02-23T07:53:40;97293.91;;;8.01;100.00
9289;BME280;4683;50.864;12.086;2024-02-23T07:56:10;97297.13;;;8.10;100.00
9289;BME280;4683;50.864;12.086;2024-02-23T07:58:39;97300.72;;;8.16;100.00
9289;BME280;4683;50.864;12.086;2024-02-23T08:01:08;97298.50;;;8.19;100.00
9289;BME280;4683;50.864;12.086;2024-02-23T08:03:37;97280.25;;;8.37;100.00
9289;BME280;4683;50.864;12.086;2024-02-23T08:06:05;97273.94;;;8.45;100.00
9289;BME280;4683;50.864;12.086;2024-02-23T08:08:34;97267.09;;;8.37;100.00
9289;BME280;4683;50.864;12.086;2024-02-23T08:11:04;97277.81;;;8.29;100.00
9289;BME280;4683;50.864;12.086;2024-02-23T08:13:35;97280.09;;;8.19;100.00
9289;BME280;4683;50.864;12.086;2024-02-23T08:16:23;97270.41;;;8.20;100.00
9289;BME280;4683;50.864;12.086;2024-02-23T08:20:10;97264.97;;;8.53;100.00
9289;BME280;4683;50.864;12.086;2024-02-23T08:23:28;97259.41;;;8.36;100.00
9289;BME280;4683;50.864;12.086;2024-02-23T08:25:57;97271.72;;;8.35;100.00
9289;BME280;4683;50.864;12.086;2024-02-23T08:28:28;97266.09;;;8.32;100.00
9289;BME280;4683;50.864;12.086;2024-02-23T08:31:00;97278.75;;;8.48;100.00
9289;BME280;4683;50.864;12.086;2024-02-23T08:33:28;97282.19;;;8.49;100.00
9289;BME280;4683;50.864;12.086;2024-02-23T08:35:57;97284.97;;;8.54;100.00
9289;BME280;4683;50.864;12.086;2024-02-23T08:38:25;97289.16;;;8.68;100.00
9289;BME280;4683;50.864;12.086;2024-02-23T08:40:54;97299.31;;;8.58;100.00
9289;BME280;4683;50.864;12.086;2024-02-23T08:43:23;97305.19;;;8.60;100.00
9289;BME280;4683;50.864;12.086;2024-02-23T08:45:51;97309.97;;;8.70;100.00
9289;BME280;4683;50.864;12.086;2024-02-23T08:48:21;97318.25;;;8.73;100.00
9289;BME280;4683;50.864;12.086;2024-02-23T08:50:50;97325.97;;;8.68;100.00
9289;BME280;4683;50.864;12.086;2024-02-23T08:53:19;97327.78;;;8.68;100.00
9289;BME280;4683;50.864;12.086;2024-02-23T08:55:47;97323.78;;;8.58;100.00
9289;BME280;4683;50.864;12.086;2024-02-23T08:58:16;97333.84;;;8.68;100.00
9289;BME280;4683;50.864;12.086;2024-02-23T09:00:44;97324.06;;;8.75;100.00
9289;BME280;4683;50.864;12.086;2024-02-23T09:03:13;97315.81;;;8.72;100.00
9289;BME280;4683;50.864;12.086;2024-02-23T09:05:42;97307.47;;;8.81;100.00
9289;BME280;4683;50.864;12.086;2024-02-23T09:08:13;97315.56;;;8.80;100.00
9289;BME280;4683;50.864;12.086;2024-02-23T09:10:44;97320.81;;;8.80;100.00
9289;BME280;4683;50.864;12.086;2024-02-23T09:13:13;97311.72;;;8.76;100.00
9289;BME280;4683;50.864;12.086;2024-02-23T09:15:42;97300.16;;;8.83;100.00
9289;BME280;4683;50.864;12.086;2024-02-23T09:18:10;97301.38;;;8.81;100.00
9289;BME280;4683;50.864;12.086;2024-02-23T09:20:39;97303.97;;;8.87;100.00
9289;BME280;4683;50.864;12.086;2024-02-23T09:23:10;97292.84;;;8.85;100.00
9289;BME280;4683;50.864;12.086;2024-02-23T09:25:39;97301.69;;;8.98;100.00
9289;BME280;4683;50.864;12.086;2024-02-23T09:28:08;97299.75;;;8.86;100.00
9289;BME280;4683;50.864;12.086;2024-02-23T09:30:38;97303.44;;;8.79;100.00
9289;BME280;4683;50.864;12.086;2024-02-23T09:33:07;97298.94;;;8.86;100.00
9289;BME280;4683;50.864;12.086;2024-02-23T09:35:36;97296.25;;;8.93;100.00
9289;BME280;4683;50.864;12.086;2024-02-23T09:38:04;97302.06;;;9.01;100.00
9289;BME280;4683;50.864;12.086;2024-02-23T09:40:37;97286.81;;;9.10;100.00
9289;BME280;4683;50.864;12.086;2024-02-23T09:43:09;97305.44;;;8.83;95.20
9289;BME280;4683;50.864;12.086;2024-02-23T09:45:39;97299.41;;;8.76;98.21
9289;BME280;4683;50.864;12.086;2024-02-23T09:48:09;97301.44;;;8.74;98.77
9289;BME280;4683;50.864;12.086;2024-02-23T09:50:40;97306.34;;;8.96;97.48
9289;BME280;4683;50.864;12.086;2024-02-23T09:53:12;97319.41;;;9.09;96.44
9289;BME280;4683;50.864;12.086;2024-02-23T09:55:43;97328.84;;;8.92;96.53
9289;BME280;4683;50.864;12.086;2024-02-23T09:58:14;97318.91;;;8.62;95.62
9289;BME280;4683;50.864;12.086;2024-02-23T10:00:44;97334.50;;;8.88;97.02
9289;BME280;4683;50.864;12.086;2024-02-23T10:03:12;97333.91;;;9.18;96.94
9289;BME280;4683;50.864;12.086;2024-02-23T10:05:41;97337.44;;;9.30;96.90
9289;BME280;4683;50.864;12.086;2024-02-23T10:08:11;97328.03;;;9.41;96.49
9289;BME280;4683;50.864;12.086;2024-02-23T10:10:40;97333.09;;;9.18;93.68
9289;BME280;4683;50.864;12.086;2024-02-23T10:13:11;97328.25;;;9.39;93.92
9289;BME280;4683;50.864;12.086;2024-02-23T10:15:39;97321.09;;;9.47;92.96
9289;BME280;4683;50.864;12.086;2024-02-23T10:18:08;97335.19;;;9.59;94.13
9289;BME280;4683;50.864;12.086;2024-02-23T10:20:37;97332.44;;;9.47;92.88
9289;BME280;4683;50.864;12.086;2024-02-23T10:23:05;97351.31;;;9.62;92.45
9289;BME280;4683;50.864;12.086;2024-02-23T10:25:34;97344.41;;;9.68;90.22
9289;BME280;4683;50.864;12.086;2024-02-23T10:28:05;97351.44;;;9.49;92.26
9289;BME280;4683;50.864;12.086;2024-02-23T10:30:37;97349.00;;;9.54;92.04
9289;BME280;4683;50.864;12.086;2024-02-23T10:33:06;97349.59;;;9.31;93.26
9289;BME280;4683;50.864;12.086;2024-02-23T10:35:38;97353.75;;;9.14;94.15
9289;BME280;4683;50.864;12.086;2024-02-23T10:38:08;97357.53;;;9.50;92.95
9289;BME280;4683;50.864;12.086;2024-02-23T10:40:40;97357.75;;;9.66;93.74
9289;BME280;4683;50.864;12.086;2024-02-23T10:43:14;97361.50;;;9.59;92.93
9289;BME280;4683;50.864;12.086;2024-02-23T10:45:47;97377.72;;;9.56;94.79
9289;BME280;4683;50.864;12.086;2024-02-23T10:48:15;97386.00;;;9.59;93.92
9289;BME280;4683;50.864;12.086;2024-02-23T10:50:45;97374.00;;;9.63;95.82
9289;BME280;4683;50.864;12.086;2024-02-23T10:53:14;97379.63;;;9.67;95.55
9289;BME280;4683;50.864;12.086;2024-02-23T10:55:44;97385.38;;;9.82;93.84
9289;BME280;4683;50.864;12.086;2024-02-23T10:58:14;97384.03;;;9.73;94.84
9289;BME280;4683;50.864;12.086;2024-02-23T11:00:42;97390.03;;;9.80;95.00
9289;BME280;4683;50.864;12.086;2024-02-23T11:03:15;97392.16;;;9.47;93.53
9289;BME280;4683;50.864;12.086;2024-02-23T11:05:48;97402.28;;;9.50;94.63
9289;BME280;4683;50.864;12.086;2024-02-23T11:08:18;97405.59;;;9.63;92.30
9289;BME280;4683;50.864;12.086;2024-02-23T11:10:49;97405.16;;;9.42;95.02
9289;BME280;4683;50.864;12.086;2024-02-23T11:13:22;97411.38;;;9.47;94.41
9289;BME280;4683;50.864;12.086;2024-02-23T11:16:02;97409.78;;;9.46;93.91
9289;BME280;4683;50.864;12.086;2024-02-23T11:18:34;97402.09;;;9.45;93.82
9289;BME280;4683;50.864;12.086;2024-02-23T11:21:04;97394.91;;;9.33;93.35
9289;BME280;4683;50.864;12.086;2024-02-23T11:23:41;97395.97;;;9.51;92.08
9289;BME280;4683;50.864;12.086;2024-02-23T11:26:12;97395.13;;;9.57;93.09
9289;BME280;4683;50.864;12.086;2024-02-23T11:28:47;97391.91;;;9.55;92.67
9289;BME280;4683;50.864;12.086;2024-02-23T11:31:15;97393.13;;;9.52;92.78
9289;BME280;4683;50.864;12.086;2024-02-23T11:33:53;97393.88;;;9.59;92.01
9289;BME280;4683;50.864;12.086;2024-02-23T11:36:29;97391.75;;;9.50;94.04
9289;BME280;4683;50.864;12.086;2024-02-23T11:38:59;97393.88;;;9.59;93.78
9289;BME280;4683;50.864;12.086;2024-02-23T11:41:28;97390.66;;;9.32;94.12
9289;BME280;4683;50.864;12.086;2024-02-23T11:43:57;97392.03;;;9.35;96.69
9289;BME280;4683;50.864;12.086;2024-02-23T11:46:26;97390.31;;;9.54;96.11
9289;BME280;4683;50.864;12.086;2024-02-23T11:48:56;97379.47;;;9.62;96.37
9289;BME280;4683;50.864;12.086;2024-02-23T11:51:24;97394.28;;;9.63;98.08
9289;BME280;4683;50.864;12.086;2024-02-23T11:53:56;97379.59;;;9.74;97.16
9289;BME280;4683;50.864;12.086;2024-02-23T11:56:26;97380.38;;;9.74;97.93
9289;BME280;4683;50.864;12.086;2024-02-23T11:58:55;97375.78;;;9.88;97.23
9289;BME280;4683;50.864;12.086;2024-02-23T12:01:23;97372.78;;;9.84;97.94
9289;BME280;4683;50.864;12.086;2024-02-23T12:03:52;97373.84;;;10.02;98.63
9289;BME280;4683;50.864;12.086;2024-02-23T12:06:22;97360.38;;;10.10;97.58
9289;BME280;4683;50.864;12.086;2024-02-23T12:08:51;97365.50;;;10.05;98.45
9289;BME280;4683;50.864;12.086;2024-02-23T12:11:20;97356.13;;;9.90;99.46
9289;BME280;4683;50.864;12.086;2024-02-23T12:13:48;97357.44;;;10.00;100.00
9289;BME280;4683;50.864;12.086;2024-02-23T12:16:21;97366.34;;;9.80;99.56
9289;BME280;4683;50.864;12.086;2024-02-23T12:18:53;97364.28;;;9.64;97.13
9289;BME280;4683;50.864;12.086;2024-02-23T12:21:24;97373.28;;;9.75;97.36
9289;BME280;4683;50.864;12.086;2024-02-23T12:23:54;97363.53;;;9.57;96.23
9289;BME280;4683;50.864;12.086;2024-02-23T12:26:24;97378.03;;;9.66;97.75
9289;BME280;4683;50.864;12.086;2024-02-23T12:28:53;97373.63;;;9.60;99.16
9289;BME280;4683;50.864;12.086;2024-02-23T12:31:31;97378.19;;;9.46;97.70
9289;BME280;4683;50.864;12.086;2024-02-23T12:33:59;97378.31;;;9.33;99.11
9289;BME280;4683;50.864;12.086;2024-02-23T12:36:30;97370.97;;;9.42;100.00
9289;BME280;4683;50.864;12.086;2024-02-23T12:39:01;97372.81;;;9.34;100.00
9289;BME280;4683;50.864;12.086;2024-02-23T12:41:30;97368.47;;;9.47;100.00
9289;BME280;4683;50.864;12.086;2024-02-23T12:43:58;97369.66;;;9.51;100.00
9289;BME280;4683;50.864;12.086;2024-02-23T12:46:28;97367.59;;;9.53;100.00
9289;BME280;4683;50.864;12.086;2024-02-23T12:48:56;97367.09;;;9.87;100.00
9289;BME280;4683;50.864;12.086;2024-02-23T12:51:26;97369.59;;;10.01;99.59
9289;BME280;4683;50.864;12.086;2024-02-23T12:53:59;97370.28;;;9.71;99.83
9289;BME280;4683;50.864;12.086;2024-02-23T12:56:28;97367.72;;;9.64;100.00
9289;BME280;4683;50.864;12.086;2024-02-23T12:58:58;97366.34;;;9.80;100.00
9289;BME280;4683;50.864;12.086;2024-02-23T13:01:27;97358.63;;;9.60;100.00
9289;BME280;4683;50.864;12.086;2024-02-23T13:03:55;97373.53;;;9.23;97.37
9289;BME280;4683;50.864;12.086;2024-02-23T13:06:24;97368.91;;;9.19;95.64
9289;BME280;4683;50.864;12.086;2024-02-23T13:08:55;97378.34;;;9.26;96.19
9289;BME280;4683;50.864;12.086;2024-02-23T13:11:26;97374.25;;;9.30;95.64
9289;BME280;4683;50.864;12.086;2024-02-23T13:13:55;97379.47;;;9.12;94.21
9289;BME280;4683;50.864;12.086;2024-02-23T13:16:23;97379.28;;;9.07;96.54
9289;BME280;4683;50.864;12.086;2024-02-23T13:18:52;97382.00;;;9.25;95.33
9289;BME280;4683;50.864;12.086;2024-02-23T13:21:20;97383.88;;;9.18;95.24
9289;BME280;4683;50.864;12.086;2024-02-23T13:23:50;97393.78;;;9.48;93.66
9289;BME280;4683;50.864;12.086;2024-02-23T13:26:22;97384.69;;;9.44;94.18
9289;BME280;4683;50.864;12.086;2024-02-23T13:28:51;97380.41;;;9.24;94.00